sensor_id;sensor_type;location;lat;lon;timestamp;temperature;humidity
7214;DHT22;3648;50.614;13.830;2023-05-19T00:01:15;10.70;99.90
7214;DHT22;3648;50.614;13.830;2023-05-19T00:03:49;10.70;99.90
7214;DHT22;3648;50.614;13.830;2023-05-19T00:06:21;10.70;99.90
7214;DHT22;3648;50.614;13.830;2023-05-19T00:08:53;10.70;99.90
7214;DHT22;3648;50.614;13.830;2023-05-19T00:11:22;10.70;99.90
7214;DHT22;3648;50.614;13.830;2023-05-19T00:13:51;10.70;99.90
7214;DHT22;3648;50.614;13.830;2023-05-19T00:16:19;10.80;99.90
7214;DHT22;3648;50.614;13.830;2023-05-19T00:18:46;10.80;99.90
7214;DHT22;3648;50.614;13.830;2023-05-19T00:21:14;10.80;99.90
7214;DHT22;3648;50.614;13.830;2023-05-19T00:23:42;10.80;99.90
7214;DHT22;3648;50.614;13.830;2023-05-19T00:26:10;10.80;99.90
7214;DHT22;3648;50.614;13.830;2023-05-19T00:28:37;10.80;99.90
7214;DHT22;3648;50.614;13.830;2023-05-19T00:31:04;10.80;99.90
7214;DHT22;3648;50.614;13.830;2023-05-19T00:33:31;10.70;99.90
7214;DHT22;3648;50.614;13.830;2023-05-19T00:35:59;10.70;99.90
7214;DHT22;3648;50.614;13.830;2023-05-19T00:38:27;10.70;99.90
7214;DHT22;3648;50.614;13.830;2023-05-19T00:40:55;10.70;99.90
7214;DHT22;3648;50.614;13.830;2023-05-19T00:43:22;10.70;99.90
7214;DHT22;3648;50.614;13.830;2023-05-19T00:45:50;10.70;99.90
7214;DHT22;3648;50.614;13.830;2023-05-19T00:48:17;10.60;99.90
7214;DHT22;3648;50.614;13.830;2023-05-19T00:50:44;10.40;99.90
7214;DHT22;3648;50.614;13.830;2023-05-19T00:53:12;10.30;99.90
7214;DHT22;3648;50.614;13.830;2023-05-19T00:55:40;10.40;99.90
7214;DHT22;3648;50.614;13.830;2023-05-19T00:58:11;10.30;99.90
7214;DHT22;3648;50.614;13.830;2023-05-19T01:00:38;10.30;99.90
7214;DHT22;3648;50.614;13.830;2023-05-19T01:03:05;10.20;99.90
7214;DHT22;3648;50.614;13.830;2023-05-19T01:05:38;10.20;99.90
7214;DHT22;3648;50.614;13.830;2023-05-19T01:08:06;10.20;99.90
7214;DHT22;3648;50.614;13.830;2023-05-19T01:10:33;10.20;99.90
7214;DHT22;3648;50.614;13.830;2023-05-19T01:13:01;10.20;99.90
7214;DHT22;3648;50.614;13.830;2023-05-19T01:15:34;10.20;99.90
7214;DHT22;3648;50.614;13.830;2023-05-19T01:18:07;10.20;99.90
7214;DHT22;3648;50.614;13.830;2023-05-19T01:20:41;10.20;99.90
7214;DHT22;3648;50.614;13.830;2023-05-19T01:23:27;10.20;99.90
7214;DHT22;3648;50.614;13.830;2023-05-19T01:29:40;10.00;99.90
7214;DHT22;3648;50.614;13.830;2023-05-19T01:32:09;9.70;99.90
7214;DHT22;3648;50.614;13.830;2023-05-19T01:34:41;9.70;99.90
7214;DHT22;3648;50.614;13.830;2023-05-19T01:37:08;9.70;99.90
7214;DHT22;3648;50.614;13.830;2023-05-19T01:39:36;9.60;99.90
7214;DHT22;3648;50.614;13.830;2023-05-19T01:42:05;9.60;99.90
7214;DHT22;3648;50.614;13.830;2023-05-19T01:44:32;9.60;99.90
7214;DHT22;3648;50.614;13.830;2023-05-19T01:46:59;9.60;99.90
7214;DHT22;3648;50.614;13.830;2023-05-19T01:49:28;9.60;99.90
7214;DHT22;3648;50.614;13.830;2023-05-19T01:51:55;9.70;99.90
7214;DHT22;3648;50.614;13.830;2023-05-19T01:54:22;9.70;99.90
7214;DHT22;3648;50.614;13.830;2023-05-19T01:56:59;9.70;99.90
7214;DHT22;3648;50.614;13.830;2023-05-19T01:59:40;9.70;99.90
7214;DHT22;3648;50.614;13.830;2023-05-19T02:02:15;9.70;99.90
7214;DHT22;3648;50.614;13.830;2023-05-19T02:04:52;9.60;99.90
7214;DHT22;3648;50.614;13.830;2023-05-19T02:07:28;9.50;99.90
7214;DHT22;3648;50.614;13.830;2023-05-19T02:10:03;9.50;99.90
7214;DHT22;3648;50.614;13.830;2023-05-19T02:12:33;9.50;99.90
7214;DHT22;3648;50.614;13.830;2023-05-19T02:15:05;9.50;99.90
7214;DHT22;3648;50.614;13.830;2023-05-19T02:17:35;9.50;99.90
7214;DHT22;3648;50.614;13.830;2023-05-19T02:20:07;9.50;99.90
7214;DHT22;3648;50.614;13.830;2023-05-19T02:22:35;9.50;99.90
7214;DHT22;3648;50.614;13.830;2023-05-19T02:25:02;9.50;99.90
7214;DHT22;3648;50.614;13.830;2023-05-19T02:27:29;9.50;99.90
7214;DHT22;3648;50.614;13.830;2023-05-19T02:29:55;9.50;99.90
7214;DHT22;3648;50.614;13.830;2023-05-19T02:32:22;9.50;99.90
7214;DHT22;3648;50.614;13.830;2023-05-19T02:34:49;9.50;99.90
7214;DHT22;3648;50.614;13.830;2023-05-19T02:37:19;9.50;99.90
7214;DHT22;3648;50.614;13.830;2023-05-19T02:39:48;9.50;99.90
7214;DHT22;3648;50.614;13.830;2023-05-19T02:42:15;9.50;99.90
7214;DHT22;3648;50.614;13.830;2023-05-19T02:44:42;9.40;99.90
7214;DHT22;3648;50.614;13.830;2023-05-19T02:47:09;9.40;99.90
7214;DHT22;3648;50.614;13.830;2023-05-19T02:49:36;9.40;99.90
7214;DHT22;3648;50.614;13.830;2023-05-19T02:52:04;9.40;99.90
7214;DHT22;3648;50.614;13.830;2023-05-19T02:54:33;9.40;99.90
7214;DHT22;3648;50.614;13.830;2023-05-19T02:57:00;9.40;99.90
7214;DHT22;3648;50.614;13.830;2023-05-19T02:59:27;9.40;99.90
7214;DHT22;3648;50.614;13.830;2023-05-19T03:01:56;9.30;99.90
7214;DHT22;3648;50.614;13.830;2023-05-19T03:04:23;9.40;99.90
7214;DHT22;3648;50.614;13.830;2023-05-19T03:06:49;9.40;99.90
7214;DHT22;3648;50.614;13.830;2023-05-19T03:09:16;9.40;99.90
7214;DHT22;3648;50.614;13.830;2023-05-19T03:11:45;9.40;99.90
7214;DHT22;3648;50.614;13.830;2023-05-19T03:14:12;9.40;99.90
7214;DHT22;3648;50.614;13.830;2023-05-19T03:16:39;9.40;99.90
7214;DHT22;3648;50.614;13.830;2023-05-19T03:19:07;9.40;99.90
7214;DHT22;3648;50.614;13.830;2023-05-19T03:21:34;9.40;99.90
7214;DHT22;3648;50.614;13.830;2023-05-19T03:24:01;9.40;99.90
7214;DHT22;3648;50.614;13.830;2023-05-19T03:26:28;9.40;99.90
7214;DHT22;3648;50.614;13.830;2023-05-19T03:28:56;9.40;99.90
7214;DHT22;3648;50.614;13.830;2023-05-19T03:31:23;9.40;99.90
7214;DHT22;3648;50.614;13.830;2023-05-19T03:33:51;9.40;99.90
7214;DHT22;3648;50.614;13.830;2023-05-19T03:36:18;9.30;99.90
7214;DHT22;3648;50.614;13.830;2023-05-19T03:38:46;9.10;99.90
7214;DHT22;3648;50.614;13.830;2023-05-19T03:41:13;9.10;99.90
7214;DHT22;3648;50.614;13.830;2023-05-19T03:43:40;9.10;99.90
7214;DHT22;3648;50.614;13.830;2023-05-19T03:46:08;9.20;99.90
7214;DHT22;3648;50.614;13.830;2023-05-19T03:48:35;9.20;99.90
7214;DHT22;3648;50.614;13.830;2023-05-19T03:51:02;9.30;99.90
7214;DHT22;3648;50.614;13.830;2023-05-19T03:53:29;9.40;99.90
7214;DHT22;3648;50.614;13.830;2023-05-19T03:55:56;9.40;99.90
7214;DHT22;3648;50.614;13.830;2023-05-19T03:58:23;9.50;99.90
7214;DHT22;3648;50.614;13.830;2023-05-19T04:00:51;9.50;99.90
7214;DHT22;3648;50.614;13.830;2023-05-19T04:03:19;9.60;99.90
7214;DHT22;3648;50.614;13.830;2023-05-19T04:05:46;9.60;99.90
7214;DHT22;3648;50.614;13.830;2023-05-19T04:08:13;9.60;99.90
7214;DHT22;3648;50.614;13.830;2023-05-19T04:10:40;9.50;99.90
7214;DHT22;3648;50.614;13.830;2023-05-19T04:13:07;9.50;99.90
7214;DHT22;3648;50.614;13.830;2023-05-19T04:15:34;9.50;99.90
7214;DHT22;3648;50.614;13.830;2023-05-19T04:18:01;9.50;99.90
7214;DHT22;3648;50.614;13.830;2023-05-19T04:20:30;9.50;99.90
7214;DHT22;3648;50.614;13.830;2023-05-19T04:22:57;9.50;99.90
7214;DHT22;3648;50.614;13.830;2023-05-19T04:25:24;9.60;99.90
7214;DHT22;3648;50.614;13.830;2023-05-19T04:27:52;9.60;99.90
7214;DHT22;3648;50.614;13.830;2023-05-19T04:30:22;9.60;99.90
7214;DHT22;3648;50.614;13.830;2023-05-19T04:32:49;9.50;99.90
7214;DHT22;3648;50.614;13.830;2023-05-19T04:35:16;9.60;99.90
7214;DHT22;3648;50.614;13.830;2023-05-19T04:37:45;9.50;99.90
7214;DHT22;3648;50.614;13.830;2023-05-19T04:40:13;9.40;99.90
7214;DHT22;3648;50.614;13.830;2023-05-19T04:42:40;9.50;99.90
7214;DHT22;3648;50.614;13.830;2023-05-19T04:45:10;9.70;99.90
7214;DHT22;3648;50.614;13.830;2023-05-19T04:47:38;9.80;99.90
7214;DHT22;3648;50.614;13.830;2023-05-19T04:50:06;9.90;99.90
7214;DHT22;3648;50.614;13.830;2023-05-19T04:52:33;9.90;99.90
7214;DHT22;3648;50.614;13.830;2023-05-19T04:55:02;10.00;99.90
7214;DHT22;3648;50.614;13.830;2023-05-19T04:57:29;10.10;99.90
7214;DHT22;3648;50.614;13.830;2023-05-19T04:59:56;10.10;99.90
7214;DHT22;3648;50.614;13.830;2023-05-19T05:02:24;10.20;99.90
7214;DHT22;3648;50.614;13.830;2023-05-19T05:04:53;10.30;99.90
7214;DHT22;3648;50.614;13.830;2023-05-19T05:07:21;10.30;99.90
7214;DHT22;3648;50.614;13.830;2023-05-19T05:09:48;10.30;99.90
7214;DHT22;3648;50.614;13.830;2023-05-19T05:12:17;10.40;99.90
7214;DHT22;3648;50.614;13.830;2023-05-19T05:14:45;10.50;99.90
7214;DHT22;3648;50.614;13.830;2023-05-19T05:17:12;10.60;99.90
7214;DHT22;3648;50.614;13.830;2023-05-19T05:19:39;10.50;99.90
7214;DHT22;3648;50.614;13.830;2023-05-19T05:22:07;10.60;99.90
7214;DHT22;3648;50.614;13.830;2023-05-19T05:24:34;10.70;99.90
7214;DHT22;3648;50.614;13.830;2023-05-19T05:27:01;10.80;99.90
7214;DHT22;3648;50.614;13.830;2023-05-19T05:29:30;10.90;99.90
7214;DHT22;3648;50.614;13.830;2023-05-19T05:31:57;11.00;99.90
7214;DHT22;3648;50.614;13.830;2023-05-19T05:34:24;11.00;99.90
7214;DHT22;3648;50.614;13.830;2023-05-19T05:36:51;11.10;99.90
7214;DHT22;3648;50.614;13.830;2023-05-19T05:39:18;11.20;99.90
7214;DHT22;3648;50.614;13.830;2023-05-19T05:41:45;11.30;99.90
7214;DHT22;3648;50.614;13.830;2023-05-19T05:44:12;11.40;99.90
7214;DHT22;3648;50.614;13.830;2023-05-19T05:46:41;11.50;99.90
7214;DHT22;3648;50.614;13.830;2023-05-19T05:49:08;11.60;99.90
7214;DHT22;3648;50.614;13.830;2023-05-19T05:51:37;11.70;99.90
7214;DHT22;3648;50.614;13.830;2023-05-19T05:54:06;11.80;99.90
7214;DHT22;3648;50.614;13.830;2023-05-19T05:56:33;11.90;99.90
7214;DHT22;3648;50.614;13.830;2023-05-19T05:59:01;11.90;99.90
7214;DHT22;3648;50.614;13.830;2023-05-19T06:01:29;12.00;99.90
7214;DHT22;3648;50.614;13.830;2023-05-19T06:03:57;12.00;99.90
7214;DHT22;3648;50.614;13.830;2023-05-19T06:06:24;12.00;99.90
7214;DHT22;3648;50.614;13.830;2023-05-19T06:08:51;12.00;99.90
7214;DHT22;3648;50.614;13.830;2023-05-19T06:11:18;12.10;99.90
7214;DHT22;3648;50.614;13.830;2023-05-19T06:13:45;12.10;99.90
7214;DHT22;3648;50.614;13.830;2023-05-19T06:16:12;12.10;99.90
7214;DHT22;3648;50.614;13.830;2023-05-19T06:18:39;12.20;99.90
7214;DHT22;3648;50.614;13.830;2023-05-19T06:21:08;12.20;99.90
7214;DHT22;3648;50.614;13.830;2023-05-19T06:23:38;12.30;99.90
7214;DHT22;3648;50.614;13.830;2023-05-19T06:26:05;12.40;99.90
7214;DHT22;3648;50.614;13.830;2023-05-19T06:28:32;12.50;99.90
7214;DHT22;3648;50.614;13.830;2023-05-19T06:30:59;12.60;99.90
7214;DHT22;3648;50.614;13.830;2023-05-19T06:33:26;12.70;99.90
7214;DHT22;3648;50.614;13.830;2023-05-19T06:35:53;12.90;99.90
7214;DHT22;3648;50.614;13.830;2023-05-19T06:38:21;13.00;99.90
7214;DHT22;3648;50.614;13.830;2023-05-19T06:40:48;13.30;99.90
7214;DHT22;3648;50.614;13.830;2023-05-19T06:43:15;13.50;99.90
7214;DHT22;3648;50.614;13.830;2023-05-19T06:45:42;13.60;99.90
7214;DHT22;3648;50.614;13.830;2023-05-19T06:48:09;13.60;99.90
7214;DHT22;3648;50.614;13.830;2023-05-19T06:50:36;13.70;99.90
7214;DHT22;3648;50.614;13.830;2023-05-19T06:53:03;13.90;99.90
7214;DHT22;3648;50.614;13.830;2023-05-19T06:55:32;14.00;99.90
7214;DHT22;3648;50.614;13.830;2023-05-19T06:57:58;14.10;99.90
7214;DHT22;3648;50.614;13.830;2023-05-19T07:00:25;14.20;99.90
7214;DHT22;3648;50.614;13.830;2023-05-19T07:02:52;14.40;99.90
7214;DHT22;3648;50.614;13.830;2023-05-19T07:05:19;14.50;99.90
7214;DHT22;3648;50.614;13.830;2023-05-19T07:07:46;14.60;99.90
7214;DHT22;3648;50.614;13.830;2023-05-19T07:10:13;14.60;99.90
7214;DHT22;3648;50.614;13.830;2023-05-19T07:12:42;14.80;99.90
7214;DHT22;3648;50.614;13.830;2023-05-19T07:15:09;14.70;99.90
7214;DHT22;3648;50.614;13.830;2023-05-19T07:17:36;14.80;99.90
7214;DHT22;3648;50.614;13.830;2023-05-19T07:20:04;14.70;99.90
7214;DHT22;3648;50.614;13.830;2023-05-19T07:22:34;14.60;99.90
7214;DHT22;3648;50.614;13.830;2023-05-19T07:25:01;14.60;99.90
7214;DHT22;3648;50.614;13.830;2023-05-19T07:27:28;14.70;99.90
7214;DHT22;3648;50.614;13.830;2023-05-19T07:29:56;14.60;99.90
7214;DHT22;3648;50.614;13.830;2023-05-19T07:32:23;14.80;99.90
7214;DHT22;3648;50.614;13.830;2023-05-19T07:34:51;14.80;99.90
7214;DHT22;3648;50.614;13.830;2023-05-19T07:37:18;15.10;99.90
7214;DHT22;3648;50.614;13.830;2023-05-19T07:39:45;15.20;99.90
7214;DHT22;3648;50.614;13.830;2023-05-19T07:42:12;15.40;99.90
7214;DHT22;3648;50.614;13.830;2023-05-19T07:44:39;15.50;99.90
7214;DHT22;3648;50.614;13.830;2023-05-19T07:47:07;15.40;99.90
7214;DHT22;3648;50.614;13.830;2023-05-19T07:49:34;15.40;99.90
7214;DHT22;3648;50.614;13.830;2023-05-19T07:52:01;15.50;99.90
7214;DHT22;3648;50.614;13.830;2023-05-19T07:54:28;15.40;99.90
7214;DHT22;3648;50.614;13.830;2023-05-19T07:56:55;15.50;99.90
7214;DHT22;3648;50.614;13.830;2023-05-19T07:59:22;15.50;99.90
7214;DHT22;3648;50.614;13.830;2023-05-19T08:01:49;15.70;99.90
7214;DHT22;3648;50.614;13.830;2023-05-19T08:04:18;15.80;99.90
7214;DHT22;3648;50.614;13.830;2023-05-19T08:06:44;15.70;99.90
7214;DHT22;3648;50.614;13.830;2023-05-19T08:09:11;15.80;99.90
7214;DHT22;3648;50.614;13.830;2023-05-19T08:11:38;15.80;99.90
7214;DHT22;3648;50.614;13.830;2023-05-19T08:14:05;16.00;99.90
7214;DHT22;3648;50.614;13.830;2023-05-19T08:16:32;16.10;99.90
7214;DHT22;3648;50.614;13.830;2023-05-19T08:18:59;16.10;99.90
7214;DHT22;3648;50.614;13.830;2023-05-19T08:21:30;16.30;99.90
7214;DHT22;3648;50.614;13.830;2023-05-19T08:23:59;16.50;99.90
7214;DHT22;3648;50.614;13.830;2023-05-19T08:26:26;16.60;99.90
7214;DHT22;3648;50.614;13.830;2023-05-19T08:28:52;16.50;99.90
7214;DHT22;3648;50.614;13.830;2023-05-19T08:31:20;16.60;99.90
7214;DHT22;3648;50.614;13.830;2023-05-19T08:33:47;16.70;99.90
7214;DHT22;3648;50.614;13.830;2023-05-19T08:36:22;16.60;99.90
7214;DHT22;3648;50.614;13.830;2023-05-19T08:38:49;16.90;99.90
7214;DHT22;3648;50.614;13.830;2023-05-19T08:41:16;16.90;99.90
7214;DHT22;3648;50.614;13.830;2023-05-19T08:43:43;16.90;99.90
7214;DHT22;3648;50.614;13.830;2023-05-19T08:46:12;17.00;99.90
7214;DHT22;3648;50.614;13.830;2023-05-19T08:48:41;17.00;99.90
7214;DHT22;3648;50.614;13.830;2023-05-19T08:51:19;17.20;99.90
7214;DHT22;3648;50.614;13.830;2023-05-19T08:53:55;17.30;99.90
7214;DHT22;3648;50.614;13.830;2023-05-19T08:56:24;17.00;99.90
7214;DHT22;3648;50.614;13.830;2023-05-19T08:58:52;16.80;99.90
7214;DHT22;3648;50.614;13.830;2023-05-19T09:01:21;17.00;99.90
7214;DHT22;3648;50.614;13.830;2023-05-19T09:03:49;17.10;99.90
7214;DHT22;3648;50.614;13.830;2023-05-19T09:06:16;17.40;99.90
7214;DHT22;3648;50.614;13.830;2023-05-19T09:08:43;17.10;99.90
7214;DHT22;3648;50.614;13.830;2023-05-19T09:11:12;17.10;99.90
7214;DHT22;3648;50.614;13.830;2023-05-19T09:13:40;17.20;99.90
7214;DHT22;3648;50.614;13.830;2023-05-19T09:16:07;17.50;99.90
7214;DHT22;3648;50.614;13.830;2023-05-19T09:18:37;17.50;99.90
7214;DHT22;3648;50.614;13.830;2023-05-19T09:21:05;17.70;99.90
7214;DHT22;3648;50.614;13.830;2023-05-19T09:23:32;17.70;99.90
7214;DHT22;3648;50.614;13.830;2023-05-19T09:26:02;18.20;99.90
7214;DHT22;3648;50.614;13.830;2023-05-19T09:28:35;18.20;99.90
7214;DHT22;3648;50.614;13.830;2023-05-19T09:31:04;18.50;99.90
7214;DHT22;3648;50.614;13.830;2023-05-19T09:33:33;18.60;99.90
7214;DHT22;3648;50.614;13.830;2023-05-19T09:36:00;18.70;99.90
7214;DHT22;3648;50.614;13.830;2023-05-19T09:38:27;18.60;99.90
7214;DHT22;3648;50.614;13.830;2023-05-19T09:40:55;18.80;99.90
7214;DHT22;3648;50.614;13.830;2023-05-19T09:43:22;19.10;99.90
7214;DHT22;3648;50.614;13.830;2023-05-19T09:45:57;18.90;99.90
7214;DHT22;3648;50.614;13.830;2023-05-19T09:48:25;18.80;99.90
7214;DHT22;3648;50.614;13.830;2023-05-19T09:50:53;18.60;99.90
7214;DHT22;3648;50.614;13.830;2023-05-19T09:53:21;18.70;99.90
7214;DHT22;3648;50.614;13.830;2023-05-19T09:55:53;18.70;99.90
7214;DHT22;3648;50.614;13.830;2023-05-19T09:58:22;18.90;99.90
7214;DHT22;3648;50.614;13.830;2023-05-19T10:00:49;18.90;99.90
7214;DHT22;3648;50.614;13.830;2023-05-19T10:03:19;19.00;99.90
7214;DHT22;3648;50.614;13.830;2023-05-19T10:05:47;18.90;99.90
7214;DHT22;3648;50.614;13.830;2023-05-19T10:08:16;19.00;99.90
7214;DHT22;3648;50.614;13.830;2023-05-19T10:10:44;19.00;99.90
7214;DHT22;3648;50.614;13.830;2023-05-19T10:13:12;19.30;99.90
7214;DHT22;3648;50.614;13.830;2023-05-19T10:15:40;19.50;99.90
7214;DHT22;3648;50.614;13.830;2023-05-19T10:18:08;19.60;99.90
7214;DHT22;3648;50.614;13.830;2023-05-19T10:20:36;19.60;99.90
7214;DHT22;3648;50.614;13.830;2023-05-19T10:23:05;19.40;99.90
7214;DHT22;3648;50.614;13.830;2023-05-19T10:25:32;19.60;99.90
7214;DHT22;3648;50.614;13.830;2023-05-19T10:28:04;19.60;99.90
7214;DHT22;3648;50.614;13.830;2023-05-19T10:30:36;19.50;99.90
7214;DHT22;3648;50.614;13.830;2023-05-19T10:33:06;19.30;99.90
7214;DHT22;3648;50.614;13.830;2023-05-19T10:36:01;19.10;99.90
7214;DHT22;3648;50.614;13.830;2023-05-19T10:38:39;19.10;99.90
7214;DHT22;3648;50.614;13.830;2023-05-19T10:41:11;19.30;99.90
7214;DHT22;3648;50.614;13.830;2023-05-19T10:43:48;19.60;99.90
7214;DHT22;3648;50.614;13.830;2023-05-19T10:46:22;19.40;99.90
7214;DHT22;3648;50.614;13.830;2023-05-19T10:48:50;18.90;99.90
7214;DHT22;3648;50.614;13.830;2023-05-19T10:51:19;18.60;99.90
7214;DHT22;3648;50.614;13.830;2023-05-19T10:53:46;18.50;99.90
7214;DHT22;3648;50.614;13.830;2023-05-19T10:56:27;18.60;99.90
7214;DHT22;3648;50.614;13.830;2023-05-19T10:59:01;18.60;99.90
7214;DHT22;3648;50.614;13.830;2023-05-19T11:01:32;18.80;99.90
7214;DHT22;3648;50.614;13.830;2023-05-19T11:04:04;18.90;99.90
7214;DHT22;3648;50.614;13.830;2023-05-19T11:06:33;19.20;99.90
7214;DHT22;3648;50.614;13.830;2023-05-19T11:09:10;19.30;99.90
7214;DHT22;3648;50.614;13.830;2023-05-19T11:11:45;19.50;99.90
7214;DHT22;3648;50.614;13.830;2023-05-19T11:14:14;19.80;99.90
7214;DHT22;3648;50.614;13.830;2023-05-19T11:16:41;19.90;99.90
7214;DHT22;3648;50.614;13.830;2023-05-19T11:19:16;19.80;99.90
7214;DHT22;3648;50.614;13.830;2023-05-19T11:21:49;19.90;99.90
7214;DHT22;3648;50.614;13.830;2023-05-19T11:24:35;19.90;99.90
7214;DHT22;3648;50.614;13.830;2023-05-19T11:27:24;20.10;99.90
7214;DHT22;3648;50.614;13.830;2023-05-19T11:29:52;19.70;99.90
7214;DHT22;3648;50.614;13.830;2023-05-19T11:32:20;19.80;99.90
7214;DHT22;3648;50.614;13.830;2023-05-19T11:34:47;19.80;99.90
7214;DHT22;3648;50.614;13.830;2023-05-19T11:37:16;19.70;99.90
7214;DHT22;3648;50.614;13.830;2023-05-19T11:39:44;19.60;99.90
7214;DHT22;3648;50.614;13.830;2023-05-19T11:42:11;19.30;99.90
7214;DHT22;3648;50.614;13.830;2023-05-19T11:44:39;19.10;99.90
7214;DHT22;3648;50.614;13.830;2023-05-19T11:47:07;19.00;99.90
7214;DHT22;3648;50.614;13.830;2023-05-19T11:49:34;19.00;99.90
7214;DHT22;3648;50.614;13.830;2023-05-19T11:52:02;19.00;99.90
7214;DHT22;3648;50.614;13.830;2023-05-19T11:54:31;19.00;99.90
7214;DHT22;3648;50.614;13.830;2023-05-19T11:57:01;19.00;99.90
7214;DHT22;3648;50.614;13.830;2023-05-19T11:59:29;19.00;99.90
7214;DHT22;3648;50.614;13.830;2023-05-19T12:01:59;19.00;99.90
7214;DHT22;3648;50.614;13.830;2023-05-19T12:04:26;19.10;99.90
7214;DHT22;3648;50.614;13.830;2023-05-19T12:06:53;19.30;99.90
7214;DHT22;3648;50.614;13.830;2023-05-19T12:09:21;19.50;99.90
7214;DHT22;3648;50.614;13.830;2023-05-19T12:11:50;19.40;99.90
7214;DHT22;3648;50.614;13.830;2023-05-19T12:14:18;19.40;99.90
7214;DHT22;3648;50.614;13.830;2023-05-19T12:16:44;19.40;99.90
7214;DHT22;3648;50.614;13.830;2023-05-19T12:19:11;19.30;99.90
7214;DHT22;3648;50.614;13.830;2023-05-19T12:21:39;19.10;99.90
7214;DHT22;3648;50.614;13.830;2023-05-19T12:24:06;18.80;99.90
7214;DHT22;3648;50.614;13.830;2023-05-19T12:26:34;18.80;99.90
7214;DHT22;3648;50.614;13.830;2023-05-19T12:29:05;18.70;99.90
7214;DHT22;3648;50.614;13.830;2023-05-19T12:31:33;18.70;99.90
7214;DHT22;3648;50.614;13.830;2023-05-19T12:34:00;18.70;99.90
7214;DHT22;3648;50.614;13.830;2023-05-19T12:36:27;18.60;99.90
7214;DHT22;3648;50.614;13.830;2023-05-19T12:38:56;18.50;99.90
7214;DHT22;3648;50.614;13.830;2023-05-19T12:41:24;18.30;99.90
7214;DHT22;3648;50.614;13.830;2023-05-19T12:43:52;18.20;99.90
7214;DHT22;3648;50.614;13.830;2023-05-19T12:46:21;18.00;99.90
7214;DHT22;3648;50.614;13.830;2023-05-19T12:48:48;18.30;99.90
7214;DHT22;3648;50.614;13.830;2023-05-19T12:51:16;18.50;99.90
7214;DHT22;3648;50.614;13.830;2023-05-19T12:53:43;18.40;99.90
7214;DHT22;3648;50.614;13.830;2023-05-19T12:56:11;18.60;99.90
7214;DHT22;3648;50.614;13.830;2023-05-19T12:58:39;18.70;99.90
7214;DHT22;3648;50.614;13.830;2023-05-19T13:01:13;18.70;99.90
7214;DHT22;3648;50.614;13.830;2023-05-19T13:03:42;18.60;99.90
7214;DHT22;3648;50.614;13.830;2023-05-19T13:06:10;18.40;99.90
7214;DHT22;3648;50.614;13.830;2023-05-19T13:08:37;18.40;99.90
7214;DHT22;3648;50.614;13.830;2023-05-19T13:11:05;18.30;99.90
7214;DHT22;3648;50.614;13.830;2023-05-19T13:13:32;18.20;99.90
7214;DHT22;3648;50.614;13.830;2023-05-19T13:15:59;18.20;99.90
7214;DHT22;3648;50.614;13.830;2023-05-19T13:18:26;17.90;99.90
7214;DHT22;3648;50.614;13.830;2023-05-19T13:20:57;18.00;99.90
7214;DHT22;3648;50.614;13.830;2023-05-19T13:23:24;18.00;99.90
7214;DHT22;3648;50.614;13.830;2023-05-19T13:25:52;18.00;99.90
7214;DHT22;3648;50.614;13.830;2023-05-19T13:28:19;18.00;99.90
7214;DHT22;3648;50.614;13.830;2023-05-19T13:30:46;17.90;99.90
7214;DHT22;3648;50.614;13.830;2023-05-19T13:33:14;17.90;99.90
7214;DHT22;3648;50.614;13.830;2023-05-19T13:35:41;18.00;99.90
7214;DHT22;3648;50.614;13.830;2023-05-19T13:38:09;18.00;99.90
7214;DHT22;3648;50.614;13.830;2023-05-19T13:40:36;17.90;99.90
7214;DHT22;3648;50.614;13.830;2023-05-19T13:43:04;17.90;99.90
7214;DHT22;3648;50.614;13.830;2023-05-19T13:45:32;17.90;99.90
7214;DHT22;3648;50.614;13.830;2023-05-19T13:48:00;17.80;99.90
7214;DHT22;3648;50.614;13.830;2023-05-19T13:50:27;17.70;99.90
7214;DHT22;3648;50.614;13.830;2023-05-19T13:52:54;17.60;99.90
7214;DHT22;3648;50.614;13.830;2023-05-19T13:55:22;17.60;99.90
7214;DHT22;3648;50.614;13.830;2023-05-19T13:57:51;17.60;99.90
7214;DHT22;3648;50.614;13.830;2023-05-19T14:00:18;17.40;99.90
7214;DHT22;3648;50.614;13.830;2023-05-19T14:02:46;17.40;99.90
7214;DHT22;3648;50.614;13.830;2023-05-19T14:05:13;17.40;99.90
7214;DHT22;3648;50.614;13.830;2023-05-19T14:07:39;17.50;99.90
7214;DHT22;3648;50.614;13.830;2023-05-19T14:10:07;17.40;99.90
7214;DHT22;3648;50.614;13.830;2023-05-19T14:12:36;17.40;99.90
7214;DHT22;3648;50.614;13.830;2023-05-19T14:15:04;17.40;99.90
7214;DHT22;3648;50.614;13.830;2023-05-19T14:17:32;17.30;99.90
7214;DHT22;3648;50.614;13.830;2023-05-19T14:19:59;17.20;99.90
7214;DHT22;3648;50.614;13.830;2023-05-19T14:22:26;17.00;99.90
7214;DHT22;3648;50.614;13.830;2023-05-19T14:24:53;16.90;99.90
7214;DHT22;3648;50.614;13.830;2023-05-19T14:27:20;16.70;99.90
7214;DHT22;3648;50.614;13.830;2023-05-19T14:29:48;16.80;99.90
7214;DHT22;3648;50.614;13.830;2023-05-19T14:32:15;16.80;99.90
7214;DHT22;3648;50.614;13.830;2023-05-19T14:34:42;16.80;99.90
7214;DHT22;3648;50.614;13.830;2023-05-19T14:37:09;16.80;99.90
7214;DHT22;3648;50.614;13.830;2023-05-19T14:39:36;16.80;99.90
7214;DHT22;3648;50.614;13.830;2023-05-19T14:42:04;16.70;99.90
7214;DHT22;3648;50.614;13.830;2023-05-19T14:44:31;16.70;99.90
7214;DHT22;3648;50.614;13.830;2023-05-19T14:47:00;16.70;99.90
7214;DHT22;3648;50.614;13.830;2023-05-19T14:49:28;16.60;99.90
7214;DHT22;3648;50.614;13.830;2023-05-19T14:51:55;16.50;99.90
7214;DHT22;3648;50.614;13.830;2023-05-19T14:54:22;16.60;99.90
7214;DHT22;3648;50.614;13.830;2023-05-19T14:56:49;16.40;99.90
7214;DHT22;3648;50.614;13.830;2023-05-19T14:59:16;16.50;99.90
7214;DHT22;3648;50.614;13.830;2023-05-19T15:01:42;16.50;99.90
7214;DHT22;3648;50.614;13.830;2023-05-19T15:04:11;16.50;99.90
7214;DHT22;3648;50.614;13.830;2023-05-19T15:06:38;16.50;99.90
7214;DHT22;3648;50.614;13.830;2023-05-19T15:09:05;16.50;99.90
7214;DHT22;3648;50.614;13.830;2023-05-19T15:11:32;16.50;99.90
7214;DHT22;3648;50.614;13.830;2023-05-19T15:13:59;16.40;99.90
7214;DHT22;3648;50.614;13.830;2023-05-19T15:16:26;16.30;99.90
7214;DHT22;3648;50.614;13.830;2023-05-19T15:18:53;16.20;99.90
7214;DHT22;3648;50.614;13.830;2023-05-19T15:21:21;16.20;99.90
7214;DHT22;3648;50.614;13.830;2023-05-19T15:23:48;16.20;99.90
7214;DHT22;3648;50.614;13.830;2023-05-19T15:26:15;16.10;99.90
7214;DHT22;3648;50.614;13.830;2023-05-19T15:28:42;16.20;99.90
7214;DHT22;3648;50.614;13.830;2023-05-19T15:31:09;16.20;99.90
7214;DHT22;3648;50.614;13.830;2023-05-19T15:33:36;16.20;99.90
7214;DHT22;3648;50.614;13.830;2023-05-19T15:36:04;16.20;99.90
7214;DHT22;3648;50.614;13.830;2023-05-19T15:38:34;16.20;99.90
7214;DHT22;3648;50.614;13.830;2023-05-19T15:41:05;16.10;99.90
7214;DHT22;3648;50.614;13.830;2023-05-19T15:43:33;16.10;99.90
7214;DHT22;3648;50.614;13.830;2023-05-19T15:46:00;16.00;99.90
7214;DHT22;3648;50.614;13.830;2023-05-19T15:48:29;15.90;99.90
7214;DHT22;3648;50.614;13.830;2023-05-19T15:50:57;15.90;99.90
7214;DHT22;3648;50.614;13.830;2023-05-19T15:53:24;15.90;99.90
7214;DHT22;3648;50.614;13.830;2023-05-19T15:55:52;15.80;99.90
7214;DHT22;3648;50.614;13.830;2023-05-19T15:58:21;15.80;99.90
7214;DHT22;3648;50.614;13.830;2023-05-19T16:00:49;15.80;99.90